Terminal Aerodrome Forecast
Issued by NWS

Current Version | Previous Version | Text Only | Print | Product List | Glossary Off
Versions: 1 2 3 4 5 6 7 8 9 10 11 12 13 14 15 16 17 18 19 20 21 22 23 24 25 26 27 28 29 30 31 32 33 34 35 36 37 38 39

000
FTUS44 KHGX 241732
TAFIAH
TAF
KIAH 241732Z 2418/2524 VRB04KT P6SM -RA SCT080 BKN100 OVC130
     FM242000 06006KT P6SM VCTS BKN045CB OVC070
     FM250300 09005KT P6SM BKN250
     FM251200 VRB03KT P6SM BKN012 BKN025
     FM251500 06005KT P6SM VCSH BKN025
     FM251800 05008KT P6SM VCTS BKN045CB=

USA.gov is the U.S. government's official web portal to all federal, state and local government web resources and services.